createdAt,value
2023-04-29T00:01:05.900Z,100439.31
2023-04-29T00:03:33.188Z,100381.56
2023-04-29T00:06:00.619Z,100462.78
2023-04-29T00:08:27.767Z,100449.88
2023-04-29T00:10:54.374Z,100395.16
2023-04-29T00:13:21.302Z,100477.50
2023-04-29T00:15:48.108Z,100430.31
2023-04-29T00:18:14.665Z,100424.13
2023-04-29T00:20:41.932Z,100440.81
2023-04-29T00:23:08.875Z,100418.53
2023-04-29T00:25:36.049Z,100462.91
2023-04-29T00:28:03.362Z,100442.72
2023-04-29T00:30:30.235Z,100418.53
2023-04-29T00:32:56.882Z,100465.31
2023-04-29T00:35:23.574Z,100487.75
2023-04-29T00:37:50.202Z,100470.50
2023-04-29T00:40:17.441Z,100450.50
2023-04-29T00:42:44.064Z,100493.91
2023-04-29T00:45:11.585Z,100500.47
2023-04-29T00:47:38.897Z,100461.16
2023-04-29T00:50:07.982Z,100427.81
2023-04-29T00:52:34.877Z,100451.34
2023-04-29T00:55:01.686Z,100510.56
2023-04-29T00:57:31.041Z,100516.09
2023-04-29T00:59:58.895Z,100522.47
2023-04-29T01:02:26.813Z,100527.47
2023-04-29T01:04:53.597Z,100461.19
2023-04-29T01:07:26.245Z,100523.88
2023-04-29T01:10:11.634Z,100526.63
2023-04-29T01:12:50.397Z,100529.63
2023-04-29T01:15:29.259Z,100527.66
2023-04-29T01:18:00.821Z,100524.13
2023-04-29T01:20:28.047Z,100475.19
2023-04-29T01:22:54.574Z,100464.41
2023-04-29T01:25:21.105Z,100506.88
2023-04-29T01:28:13.229Z,100532.56
2023-04-29T01:30:49.196Z,100540.13
2023-04-29T01:33:43.995Z,100552.31
2023-04-29T01:36:19.635Z,100549.84
2023-04-29T01:38:55.079Z,100526.19
2023-04-29T01:41:33.171Z,100522.28
2023-04-29T01:44:01.813Z,100496.06
2023-04-29T01:46:28.758Z,100554.88
2023-04-29T01:48:55.472Z,100513.13
2023-04-29T01:51:22.342Z,100520.88
2023-04-29T01:53:49.256Z,100534.66
2023-04-29T01:56:16.136Z,100472.13
2023-04-29T01:58:42.914Z,100493.59
2023-04-29T02:01:10.488Z,100564.63
2023-04-29T02:03:37.495Z,100516.06
2023-04-29T02:06:04.454Z,100565.50
2023-04-29T02:08:31.242Z,100567.97
2023-04-29T02:10:59.888Z,100566.75
2023-04-29T02:13:26.911Z,100500.81
2023-04-29T02:15:53.480Z,100494.44
2023-04-29T02:18:20.302Z,100550.06
2023-04-29T02:20:46.824Z,100583.91
2023-04-29T02:23:13.726Z,100580.84
2023-04-29T02:25:40.294Z,100576.03
2023-04-29T02:28:07.159Z,100593.81
2023-04-29T02:30:33.991Z,100599.00
2023-04-29T02:33:01.011Z,100608.13
2023-04-29T02:35:27.769Z,100593.47
2023-04-29T02:37:54.719Z,100616.94
2023-04-29T02:40:21.705Z,100623.97
2023-04-29T02:42:48.444Z,100617.94
2023-04-29T02:45:15.170Z,100607.38
2023-04-29T02:47:42.087Z,100613.22
2023-04-29T02:50:09.076Z,100540.34
2023-04-29T02:52:36.168Z,100510.72
2023-04-29T02:55:03.162Z,100625.16
2023-04-29T02:57:30.130Z,100614.03
2023-04-29T02:59:57.406Z,100611.91
2023-04-29T03:02:24.788Z,100629.91
2023-04-29T03:04:51.441Z,100632.78
2023-04-29T03:07:18.519Z,100616.59
2023-04-29T03:09:45.319Z,100583.97
2023-04-29T03:12:12.247Z,100642.56
2023-04-29T03:14:38.832Z,100571.88
2023-04-29T03:17:05.433Z,100642.25
2023-04-29T03:19:32.225Z,100633.94
2023-04-29T03:21:58.822Z,100586.47
2023-04-29T03:24:25.462Z,100595.91
2023-04-29T03:26:52.073Z,100651.97
2023-04-29T03:29:18.867Z,100629.88
2023-04-29T03:31:45.707Z,100640.44
2023-04-29T03:34:14.563Z,100584.00
2023-04-29T03:36:41.169Z,100598.59
2023-04-29T03:39:07.789Z,100607.22
2023-04-29T03:41:34.416Z,100641.00
2023-04-29T03:44:01.230Z,100587.25
2023-04-29T03:46:28.132Z,100613.78
2023-04-29T03:48:57.971Z,100590.44
2023-04-29T03:51:25.379Z,100661.03
2023-04-29T03:53:53.035Z,100610.94
2023-04-29T03:56:19.605Z,100661.56
2023-04-29T03:58:46.500Z,100658.78
2023-04-29T04:01:13.132Z,100598.56
2023-04-29T04:03:40.074Z,100604.44
2023-04-29T04:06:06.709Z,100629.56
2023-04-29T04:08:33.240Z,100675.81
2023-04-29T04:11:03.132Z,100638.75
2023-04-29T04:13:30.028Z,100681.22
2023-04-29T04:15:56.884Z,100682.56
2023-04-29T04:18:23.848Z,100691.22
2023-04-29T04:20:50.465Z,100666.91
2023-04-29T04:23:17.979Z,100642.94
2023-04-29T04:25:48.546Z,100621.63
2023-04-29T04:28:15.827Z,100652.44
2023-04-29T04:30:42.984Z,100674.56
2023-04-29T04:33:10.706Z,100711.81
2023-04-29T04:35:37.211Z,100711.31
2023-04-29T04:38:04.349Z,100717.91
2023-04-29T04:40:30.872Z,100697.06
2023-04-29T04:42:57.433Z,100684.59
2023-04-29T04:45:24.289Z,100668.50
2023-04-29T04:47:51.059Z,100702.97
2023-04-29T04:50:17.733Z,100652.72
2023-04-29T04:52:44.324Z,100699.72
2023-04-29T04:55:12.276Z,100652.69
2023-04-29T04:57:40.373Z,100652.00
2023-04-29T05:00:07.513Z,100701.94
2023-04-29T05:02:34.298Z,100695.53
2023-04-29T05:05:01.292Z,100733.56
2023-04-29T05:07:27.813Z,100743.81
2023-04-29T05:09:54.639Z,100718.09
2023-04-29T05:12:21.559Z,100693.31
2023-04-29T05:14:48.077Z,100674.38
2023-04-29T05:17:14.586Z,100704.41
2023-04-29T05:19:41.273Z,100755.78
2023-04-29T05:22:08.011Z,100749.06
2023-04-29T05:24:34.605Z,100749.59
2023-04-29T05:27:01.100Z,100708.06
2023-04-29T05:29:28.048Z,100734.47
2023-04-29T05:31:54.517Z,100730.31
2023-04-29T05:34:21.111Z,100759.16
2023-04-29T05:36:48.083Z,100698.75
2023-04-29T05:39:14.915Z,100760.91
2023-04-29T05:41:41.700Z,100761.81
2023-04-29T05:44:08.278Z,100728.38
2023-04-29T05:46:35.094Z,100766.00
2023-04-29T05:49:01.765Z,100757.44
2023-04-29T05:51:28.535Z,100743.19
2023-04-29T05:53:55.158Z,100789.91
2023-04-29T05:56:22.448Z,100735.69
2023-04-29T05:58:49.025Z,100744.28
2023-04-29T06:01:17.375Z,100802.81
2023-04-29T06:03:44.105Z,100739.88
2023-04-29T06:06:11.310Z,100731.28
2023-04-29T06:08:38.021Z,100795.78
2023-04-29T06:11:05.377Z,100768.44
2023-04-29T06:13:32.766Z,100798.72
2023-04-29T06:15:59.249Z,100801.47
2023-04-29T06:18:25.776Z,100780.69
2023-04-29T06:20:52.459Z,100760.41
2023-04-29T06:23:18.930Z,100822.16
2023-04-29T06:25:45.424Z,100810.66
2023-04-29T06:28:12.122Z,100840.31
2023-04-29T06:30:38.600Z,100782.56
2023-04-29T06:33:06.052Z,100851.19
2023-04-29T06:35:32.660Z,100837.69
2023-04-29T06:37:59.131Z,100851.84
2023-04-29T06:40:26.070Z,100774.38
2023-04-29T06:42:52.616Z,100853.00
2023-04-29T06:45:19.173Z,100828.78
2023-04-29T06:47:46.919Z,100854.59
2023-04-29T06:50:13.646Z,100862.03
2023-04-29T06:52:40.298Z,100803.34
2023-04-29T06:55:07.218Z,100847.84
2023-04-29T06:57:33.831Z,100832.47
2023-04-29T07:00:00.886Z,100895.09
2023-04-29T07:02:27.571Z,100859.56
2023-04-29T07:04:54.417Z,100889.13
2023-04-29T07:07:21.047Z,100866.88
2023-04-29T07:09:48.654Z,100888.56
2023-04-29T07:12:15.203Z,100860.41
2023-04-29T07:14:41.968Z,100849.78
2023-04-29T07:17:08.593Z,100824.94
2023-04-29T07:19:35.936Z,100863.38
2023-04-29T07:22:02.972Z,100888.69
2023-04-29T07:24:29.674Z,100922.25
2023-04-29T07:26:56.246Z,100923.69
2023-04-29T07:29:22.827Z,100890.53
2023-04-29T07:31:49.574Z,100931.75
2023-04-29T07:34:16.209Z,100916.66
2023-04-29T07:36:42.813Z,100950.53
2023-04-29T07:39:09.785Z,100919.88
2023-04-29T07:41:36.453Z,100935.94
2023-04-29T07:44:04.108Z,100916.81
2023-04-29T07:46:31.410Z,100957.22
2023-04-29T07:48:58.434Z,100962.31
2023-04-29T07:51:25.173Z,100879.50
2023-04-29T07:53:52.038Z,100919.69
2023-04-29T07:56:21.332Z,100900.03
2023-04-29T07:58:47.968Z,100845.31
2023-04-29T08:01:15.544Z,100981.22
2023-04-29T08:03:42.577Z,100938.88
2023-04-29T08:06:09.516Z,100993.28
2023-04-29T08:08:37.541Z,100991.44
2023-04-29T08:11:04.707Z,100966.81
2023-04-29T08:13:31.546Z,100996.75
2023-04-29T08:15:58.183Z,101006.34
2023-04-29T08:18:25.197Z,100909.72
2023-04-29T08:20:51.833Z,100989.28
2023-04-29T08:23:18.714Z,101005.69
2023-04-29T08:25:45.912Z,100970.50
2023-04-29T08:28:13.229Z,101003.69
2023-04-29T08:30:41.042Z,101012.22
2023-04-29T08:33:08.510Z,100917.00
2023-04-29T08:35:39.089Z,101018.47
2023-04-29T08:38:06.828Z,100999.00
2023-04-29T08:40:41.693Z,100943.25
2023-04-29T08:43:10.239Z,100915.63
2023-04-29T08:45:37.184Z,100951.94
2023-04-29T08:48:04.320Z,100996.97
2023-04-29T08:50:31.878Z,101022.31
2023-04-29T08:52:59.277Z,101004.81
2023-04-29T08:55:26.275Z,100766.72
2023-04-29T08:57:55.121Z,101013.44
2023-04-29T09:00:22.603Z,101026.19
2023-04-29T09:02:54.051Z,100989.72
2023-04-29T09:05:21.886Z,100986.72
2023-04-29T09:07:48.801Z,100938.53
2023-04-29T09:10:16.391Z,100996.94
2023-04-29T09:12:43.062Z,101045.50
2023-04-29T09:15:10.334Z,100933.09
2023-04-29T09:17:44.472Z,101048.00
2023-04-29T09:20:20.438Z,101056.69
2023-04-29T09:22:51.058Z,101040.16
2023-04-29T09:25:17.846Z,100967.28
2023-04-29T09:27:44.923Z,100933.06
2023-04-29T09:30:13.875Z,100989.09
2023-04-29T09:32:41.071Z,100881.06
2023-04-29T09:35:27.584Z,101053.00
2023-04-29T09:38:08.987Z,101061.38
2023-04-29T09:40:50.256Z,101059.66
2023-04-29T09:43:24.649Z,100950.47
2023-04-29T09:45:51.748Z,101067.47
2023-04-29T09:48:18.680Z,101039.69
2023-04-29T09:50:59.706Z,101078.91
2023-04-29T09:53:31.179Z,101081.88
2023-04-29T09:56:02.265Z,101043.53
2023-04-29T09:58:31.182Z,101050.94
2023-04-29T10:01:01.029Z,100991.31
2023-04-29T10:03:34.620Z,101090.28
2023-04-29T10:06:02.856Z,101076.19
2023-04-29T10:08:30.181Z,101056.44
2023-04-29T10:11:01.948Z,101092.81
2023-04-29T10:13:29.037Z,101081.47
2023-04-29T10:16:08.004Z,101061.38
2023-04-29T10:18:41.696Z,101089.91
2023-04-29T10:21:11.841Z,100943.75
2023-04-29T10:23:39.373Z,101053.97
2023-04-29T10:26:07.138Z,101028.22
2023-04-29T10:28:33.753Z,101026.75
2023-04-29T10:31:04.754Z,101014.03
2023-04-29T10:33:35.303Z,101094.88
2023-04-29T10:36:03.308Z,101065.28
2023-04-29T10:38:35.846Z,101019.97
2023-04-29T10:41:04.547Z,101090.97
2023-04-29T10:43:32.005Z,100983.84
2023-04-29T10:46:26.880Z,100841.53
2023-04-29T10:48:59.580Z,101091.91
2023-04-29T10:51:33.030Z,101103.72
2023-04-29T10:54:02.122Z,101099.94
2023-04-29T10:56:37.976Z,101051.69
2023-04-29T10:59:04.944Z,100933.50
2023-04-29T11:01:52.414Z,101102.63
2023-04-29T11:04:22.729Z,101101.16
2023-04-29T11:06:58.197Z,101102.63
2023-04-29T11:09:27.136Z,101079.22
2023-04-29T11:11:58.426Z,101106.19
2023-04-29T11:14:26.821Z,101114.31
2023-04-29T11:16:57.906Z,101112.34
2023-04-29T11:19:29.273Z,101068.03
2023-04-29T11:22:19.158Z,101113.47
2023-04-29T11:25:02.091Z,101115.34
2023-04-29T11:27:39.957Z,101051.38
2023-04-29T11:30:07.764Z,101055.25
2023-04-29T11:32:36.435Z,101091.00
2023-04-29T11:35:10.116Z,101019.03
2023-04-29T11:37:37.387Z,101102.19
2023-04-29T11:40:05.471Z,101029.38
2023-04-29T11:42:36.012Z,101090.34
2023-04-29T11:45:02.744Z,101065.72
2023-04-29T11:47:30.536Z,101045.47
2023-04-29T11:50:04.987Z,101106.88
2023-04-29T11:52:32.252Z,101067.69
2023-04-29T11:55:00.201Z,101051.38
2023-04-29T11:57:26.943Z,101060.56
2023-04-29T11:59:53.815Z,101111.34
2023-04-29T12:02:23.969Z,101105.09
2023-04-29T12:04:51.736Z,101085.25
2023-04-29T12:07:18.675Z,101081.38
2023-04-29T12:09:49.121Z,101070.13
2023-04-29T12:12:16.004Z,101130.75
2023-04-29T12:14:43.237Z,101103.84
2023-04-29T12:17:10.421Z,101131.88
2023-04-29T12:19:39.182Z,101082.28
2023-04-29T12:22:08.065Z,101119.09
2023-04-29T12:24:39.786Z,101098.38
2023-04-29T12:27:10.326Z,100889.41
2023-04-29T12:29:37.672Z,101144.63
2023-04-29T12:32:04.518Z,101095.22
2023-04-29T12:34:32.385Z,101143.75
2023-04-29T12:37:00.234Z,101156.97
2023-04-29T12:39:27.681Z,101098.03
2023-04-29T12:42:01.871Z,101116.63
2023-04-29T12:44:36.557Z,101101.91
2023-04-29T12:47:08.984Z,101112.50
2023-04-29T12:49:37.180Z,101121.63
2023-04-29T12:52:04.394Z,101103.28
2023-04-29T12:54:31.123Z,101125.53
2023-04-29T12:56:57.720Z,101137.84
2023-04-29T12:59:24.351Z,101020.97
2023-04-29T13:01:51.342Z,101094.78
2023-04-29T13:04:18.044Z,101161.31
2023-04-29T13:06:44.694Z,101110.84
2023-04-29T13:09:17.479Z,101144.84
2023-04-29T13:11:45.265Z,101086.84
2023-04-29T13:14:12.161Z,101079.19
2023-04-29T13:16:39.081Z,101141.81
2023-04-29T13:19:18.027Z,101129.22
2023-04-29T13:21:53.056Z,101087.94
2023-04-29T13:24:20.929Z,101126.44
2023-04-29T13:26:50.339Z,101086.44
2023-04-29T13:29:18.869Z,101114.38
2023-04-29T13:31:47.533Z,101112.38
2023-04-29T13:34:14.327Z,101085.06
2023-04-29T13:36:40.986Z,100813.59
2023-04-29T13:39:07.815Z,101129.56
2023-04-29T13:41:35.571Z,101125.88
2023-04-29T13:44:03.020Z,101150.63
2023-04-29T13:46:32.564Z,101130.59
2023-04-29T13:54:49.290Z,101157.09
2023-04-29T13:59:41.687Z,101158.59
2023-04-29T14:04:31.572Z,101106.34
2023-04-29T14:06:58.332Z,101107.41
2023-04-29T14:09:25.064Z,101166.72
2023-04-29T14:11:51.752Z,101144.47
2023-04-29T14:14:18.481Z,101144.69
2023-04-29T14:16:45.270Z,101139.00
2023-04-29T14:19:11.994Z,101019.44
2023-04-29T14:21:39.118Z,101100.81
2023-04-29T14:24:05.883Z,101159.88
2023-04-29T14:26:32.522Z,101179.06
2023-04-29T14:29:00.141Z,101175.91
2023-04-29T14:31:31.684Z,101130.63
2023-04-29T14:33:58.577Z,101162.59
2023-04-29T14:36:26.683Z,101183.06
2023-04-29T14:38:53.404Z,101058.13
2023-04-29T14:41:21.616Z,101190.22
2023-04-29T14:43:48.345Z,101101.88
2023-04-29T14:46:15.070Z,101195.66
2023-04-29T14:48:41.746Z,101172.09
2023-04-29T14:51:08.909Z,101193.19
2023-04-29T14:53:36.613Z,101195.94
2023-04-29T14:56:03.743Z,101185.50
2023-04-29T14:58:30.915Z,101167.72
2023-04-29T15:00:57.758Z,101196.25
2023-04-29T15:03:24.889Z,101210.34
2023-04-29T15:05:51.831Z,101207.25
2023-04-29T15:08:19.383Z,101137.50
2023-04-29T15:10:47.572Z,100906.16
2023-04-29T15:13:14.995Z,101163.72
2023-04-29T15:15:41.935Z,101208.66
2023-04-29T15:18:09.159Z,101201.47
2023-04-29T15:20:37.014Z,101171.22
2023-04-29T15:23:05.492Z,101202.56
2023-04-29T15:25:36.285Z,101209.84
2023-04-29T15:28:05.124Z,101180.47
2023-04-29T15:30:32.336Z,101206.38
2023-04-29T15:32:59.297Z,101219.72
2023-04-29T15:35:27.045Z,101215.16
2023-04-29T15:37:54.050Z,101203.78
2023-04-29T15:40:20.654Z,101157.28
2023-04-29T15:42:47.712Z,101196.03
2023-04-29T15:45:14.264Z,101176.31
2023-04-29T15:47:40.942Z,101179.69
2023-04-29T15:50:09.593Z,101155.59
2023-04-29T15:52:36.900Z,101211.16
2023-04-29T15:55:04.975Z,101211.66
2023-04-29T15:57:31.634Z,101148.38
2023-04-29T15:59:58.336Z,101156.97
2023-04-29T16:02:25.285Z,101114.88
2023-04-29T16:04:51.852Z,101171.63
2023-04-29T16:07:18.435Z,101153.22
2023-04-29T16:09:45.036Z,101230.41
2023-04-29T16:12:13.084Z,101189.22
2023-04-29T16:14:39.728Z,101210.19
2023-04-29T16:17:06.778Z,101212.34
2023-04-29T16:19:35.982Z,101224.41
2023-04-29T16:22:03.778Z,101205.03
2023-04-29T16:24:30.363Z,101185.06
2023-04-29T16:26:58.887Z,101170.50
2023-04-29T16:29:25.769Z,101163.44
2023-04-29T16:31:52.954Z,101189.88
2023-04-29T16:34:20.062Z,101211.44
2023-04-29T16:36:47.008Z,101043.50
2023-04-29T16:39:13.801Z,101196.34
2023-04-29T16:41:41.294Z,101137.03
2023-04-29T16:44:08.054Z,101148.63
2023-04-29T16:46:35.326Z,101231.69
2023-04-29T16:49:02.115Z,101235.56
2023-04-29T16:51:29.200Z,101210.06
2023-04-29T16:53:55.789Z,101215.06
2023-04-29T16:56:22.606Z,101211.81
2023-04-29T16:58:49.209Z,101180.06
2023-04-29T17:01:16.435Z,101119.03
2023-04-29T17:03:43.138Z,101184.50
2023-04-29T17:06:09.829Z,101217.19
2023-04-29T17:08:36.720Z,101234.44
2023-04-29T17:11:04.771Z,101212.16
2023-04-29T17:13:31.670Z,101217.19
2023-04-29T17:15:58.390Z,101249.06
2023-04-29T17:18:25.080Z,101190.38
2023-04-29T17:20:51.654Z,101231.66
2023-04-29T17:23:18.363Z,101254.19
2023-04-29T17:25:45.129Z,101252.41
2023-04-29T17:28:11.929Z,101259.34
2023-04-29T17:30:38.694Z,101169.25
2023-04-29T17:33:05.973Z,101212.34
2023-04-29T17:35:33.714Z,101254.34
2023-04-29T17:38:00.414Z,101189.50
2023-04-29T17:40:27.540Z,101222.03
2023-04-29T17:42:54.111Z,101258.88
2023-04-29T17:45:20.743Z,101215.13
2023-04-29T17:47:48.414Z,101230.00
2023-04-29T17:50:15.393Z,101147.13
2023-04-29T17:52:42.748Z,101192.81
2023-04-29T17:55:10.109Z,101256.81
2023-04-29T17:57:38.076Z,101179.06
2023-04-29T18:00:07.307Z,101219.78
2023-04-29T18:02:34.638Z,101250.81
2023-04-29T18:05:03.529Z,101250.91
2023-04-29T18:07:30.155Z,101109.41
2023-04-29T18:09:57.043Z,101237.03
2023-04-29T18:12:24.971Z,101154.47
2023-04-29T18:14:51.975Z,101258.59
2023-04-29T18:17:19.021Z,101198.19
2023-04-29T18:19:49.658Z,101265.03
2023-04-29T18:22:16.847Z,101210.56
2023-04-29T18:24:43.699Z,101241.63
2023-04-29T18:27:10.456Z,101203.44
2023-04-29T18:29:37.950Z,101256.75
2023-04-29T18:32:07.819Z,101280.63
2023-04-29T18:34:34.966Z,101255.13
2023-04-29T18:37:01.664Z,101143.97
2023-04-29T18:39:28.445Z,101264.03
2023-04-29T18:41:55.324Z,101281.47
2023-04-29T18:44:21.992Z,101233.47
2023-04-29T18:46:48.562Z,101168.72
2023-04-29T18:49:18.104Z,101169.81
2023-04-29T18:51:46.754Z,101293.97
2023-04-29T18:54:15.234Z,101243.88
2023-04-29T18:56:46.261Z,101241.66
2023-04-29T18:59:15.798Z,101198.19
2023-04-29T19:01:43.217Z,101284.56
2023-04-29T19:04:10.266Z,101198.72
2023-04-29T19:06:37.736Z,101248.66
2023-04-29T19:09:05.489Z,101246.53
2023-04-29T19:11:32.660Z,101116.19
2023-04-29T19:13:59.262Z,101295.69
2023-04-29T19:16:26.201Z,101270.25
2023-04-29T19:18:53.614Z,101316.78
2023-04-29T19:21:20.648Z,101284.53
2023-04-29T19:23:47.767Z,101302.56
2023-04-29T19:26:14.448Z,101298.78
2023-04-29T19:28:41.147Z,101324.28
2023-04-29T19:31:07.764Z,101105.22
2023-04-29T19:33:34.633Z,101271.38
2023-04-29T19:36:01.347Z,101315.78
2023-04-29T19:38:28.035Z,101350.88
2023-04-29T19:40:56.034Z,101330.88
2023-04-29T19:43:23.106Z,101335.78
2023-04-29T19:45:51.666Z,101142.34
2023-04-29T19:48:18.222Z,101329.25
2023-04-29T19:50:44.851Z,101333.22
2023-04-29T19:53:11.743Z,101303.63
2023-04-29T19:55:41.191Z,101292.06
2023-04-29T19:58:07.967Z,101186.50
2023-04-29T20:00:35.294Z,101127.28
2023-04-29T20:03:02.759Z,101309.81
2023-04-29T20:05:29.785Z,101343.47
2023-04-29T20:07:56.375Z,101348.69
2023-04-29T20:10:23.085Z,101286.50
2023-04-29T20:12:50.523Z,101352.09
2023-04-29T20:15:17.200Z,101347.69
2023-04-29T20:17:44.141Z,101205.25
2023-04-29T20:20:11.170Z,101363.28
2023-04-29T20:22:38.491Z,101361.47
2023-04-29T20:25:05.591Z,101343.31
2023-04-29T20:27:32.351Z,101364.53
2023-04-29T20:29:59.061Z,101361.88
2023-04-29T20:32:26.822Z,101329.50
2023-04-29T20:34:56.915Z,101381.81
2023-04-29T20:37:23.602Z,101366.31
2023-04-29T20:39:50.837Z,101340.84
2023-04-29T20:42:17.556Z,101257.44
2023-04-29T20:44:44.433Z,101362.22
2023-04-29T20:47:11.050Z,101354.59
2023-04-29T20:49:39.444Z,101360.63
2023-04-29T20:52:08.959Z,101387.06
2023-04-29T20:54:36.927Z,101322.31
2023-04-29T20:57:05.570Z,101398.09
2023-04-29T20:59:33.598Z,101343.66
2023-04-29T21:02:00.242Z,101410.53
2023-04-29T21:04:27.113Z,101342.59
2023-04-29T21:06:53.760Z,101345.84
2023-04-29T21:09:21.447Z,101412.50
2023-04-29T21:11:48.376Z,101283.38
2023-04-29T21:14:14.986Z,101406.53
2023-04-29T21:16:42.407Z,101364.53
2023-04-29T21:19:08.960Z,101390.22
2023-04-29T21:21:35.610Z,101369.78
2023-04-29T21:24:02.197Z,101370.75
2023-04-29T21:26:29.101Z,101345.22
2023-04-29T21:28:55.997Z,101362.94
2023-04-29T21:31:24.309Z,101389.34
2023-04-29T21:33:50.968Z,101420.84
2023-04-29T21:36:17.649Z,101366.06
2023-04-29T21:38:44.335Z,101422.03
2023-04-29T21:41:28.222Z,101427.88
2023-04-29T21:43:57.567Z,101420.50
2023-04-29T21:46:25.201Z,101434.41
2023-04-29T21:48:51.954Z,101340.84
2023-04-29T21:51:22.963Z,101393.59
2023-04-29T21:53:50.764Z,101446.56
2023-04-29T21:56:17.420Z,101398.44
2023-04-29T21:58:44.805Z,101402.91
2023-04-29T22:01:39.344Z,101455.75
2023-04-29T22:04:06.335Z,101456.03
2023-04-29T22:06:34.505Z,101436.28
2023-04-29T22:09:01.540Z,101403.03
2023-04-29T22:11:28.608Z,101399.84
2023-04-29T22:13:56.325Z,101464.63
2023-04-29T22:16:23.564Z,101383.97
2023-04-29T22:18:50.818Z,101412.50
2023-04-29T22:21:17.993Z,101445.53
2023-04-29T22:23:44.728Z,101473.19
2023-04-29T22:26:11.362Z,101415.28
2023-04-29T22:28:37.883Z,101377.44
2023-04-29T22:31:04.623Z,101414.97
2023-04-29T22:33:31.549Z,101423.16
2023-04-29T22:35:58.203Z,101487.44
2023-04-29T22:38:24.863Z,101489.13
2023-04-29T22:40:52.250Z,101364.38
2023-04-29T22:43:18.896Z,101424.63
2023-04-29T22:45:55.399Z,101497.91
2023-04-29T22:48:24.171Z,101488.34
2023-04-29T22:50:53.739Z,101505.13
2023-04-29T22:53:21.180Z,101496.91
2023-04-29T22:55:55.204Z,101501.28
2023-04-29T22:58:22.502Z,101472.84
2023-04-29T23:00:57.032Z,101407.06
2023-04-29T23:03:24.059Z,101496.13
2023-04-29T23:05:51.568Z,101510.13
2023-04-29T23:08:18.492Z,101504.16
2023-04-29T23:10:49.515Z,101467.63
2023-04-29T23:13:19.208Z,101460.66
2023-04-29T23:15:45.980Z,101516.63
2023-04-29T23:18:13.036Z,101435.78
2023-04-29T23:20:39.724Z,101482.81
2023-04-29T23:23:08.395Z,101516.03
2023-04-29T23:25:35.002Z,101526.97
2023-04-29T23:28:01.870Z,101438.31
2023-04-29T23:30:28.507Z,101521.94
2023-04-29T23:32:55.474Z,101476.28
2023-04-29T23:35:22.321Z,101139.03
2023-04-29T23:37:49.007Z,101521.00
2023-04-29T23:40:16.056Z,101440.53
2023-04-29T23:42:42.641Z,101540.69
2023-04-29T23:45:09.461Z,101534.53
2023-04-29T23:47:36.059Z,101502.53
2023-04-29T23:50:04.022Z,101476.38
2023-04-29T23:52:30.671Z,101519.44
2023-04-29T23:54:57.564Z,101444.28
2023-04-29T23:57:24.187Z,101533.47
2023-04-29T23:59:50.850Z,101486.91
